createdAt,value
2022-11-20T00:02:11.555Z,2.91
2022-11-20T00:05:14.806Z,2.92
2022-11-20T00:08:16.531Z,2.86
2022-11-20T00:11:20.445Z,3.02
2022-11-20T00:14:22.140Z,2.99
2022-11-20T00:17:23.904Z,2.87
2022-11-20T00:20:27.179Z,2.84
2022-11-20T00:23:28.963Z,2.80
2022-11-20T00:26:31.225Z,2.82
2022-11-20T00:29:32.923Z,2.59
2022-11-20T00:32:34.893Z,2.80
2022-11-20T00:35:37.889Z,2.96
2022-11-20T00:38:39.626Z,3.04
2022-11-20T00:41:41.283Z,2.98
2022-11-20T00:44:42.908Z,3.08
2022-11-20T00:47:44.541Z,3.03
2022-11-20T00:50:47.452Z,2.85
2022-11-20T00:53:49.350Z,3.07
2022-11-20T00:56:50.973Z,2.99
2022-11-20T00:59:52.584Z,2.77
2022-11-20T01:02:56.582Z,2.63
2022-11-20T01:06:02.419Z,2.62
2022-11-20T01:09:05.965Z,2.82
2022-11-20T01:12:07.598Z,2.82
2022-11-20T01:15:10.046Z,2.81
2022-11-20T01:18:11.636Z,2.83
2022-11-20T01:21:16.976Z,2.87
2022-11-20T01:24:20.223Z,2.89
2022-11-20T01:27:21.881Z,2.96
2022-11-20T01:30:23.474Z,2.95
2022-11-20T01:33:25.685Z,3.04
2022-11-20T01:36:31.005Z,3.08
2022-11-20T01:39:32.456Z,3.14
2022-11-20T01:42:52.669Z,3.15
2022-11-20T01:46:00.633Z,3.33
2022-11-20T01:49:05.039Z,3.16
2022-11-20T01:52:15.859Z,3.18
2022-11-20T01:55:22.856Z,3.26
2022-11-20T01:58:29.569Z,3.27
2022-11-20T02:01:31.328Z,3.16
2022-11-20T02:04:32.969Z,3.23
2022-11-20T02:07:36.504Z,3.14
2022-11-20T02:10:38.337Z,3.31
2022-11-20T02:13:46.414Z,3.18
2022-11-20T02:16:50.339Z,3.25
2022-11-20T02:19:52.252Z,3.29
2022-11-20T02:23:00.974Z,3.24
2022-11-20T02:26:08.411Z,3.16
2022-11-20T02:29:10.411Z,3.23
2022-11-20T02:32:19.627Z,3.19
2022-11-20T02:35:41.882Z,3.23
2022-11-20T02:38:44.583Z,3.13
2022-11-20T02:41:47.644Z,3.17
2022-11-20T02:44:49.227Z,3.21
2022-11-20T02:47:50.940Z,3.31
2022-11-20T02:50:52.533Z,3.25
2022-11-20T02:53:54.166Z,3.18
2022-11-20T02:56:57.133Z,3.29
2022-11-20T02:59:58.726Z,3.23
2022-11-20T03:03:00.372Z,3.20
2022-11-20T03:06:02.175Z,3.33
2022-11-20T03:09:03.812Z,3.38
2022-11-20T03:12:07.598Z,3.38
2022-11-20T03:15:10.419Z,3.31
2022-11-20T03:18:12.045Z,3.32
2022-11-20T03:21:16.462Z,3.26
2022-11-20T03:24:18.083Z,3.33
2022-11-20T03:27:21.085Z,3.29
2022-11-20T03:30:27.596Z,3.33
2022-11-20T03:33:31.984Z,3.29
2022-11-20T03:36:34.438Z,3.33
2022-11-20T03:39:36.083Z,3.20
2022-11-20T03:42:48.162Z,3.35
2022-11-20T03:45:49.817Z,3.01
2022-11-20T03:48:52.342Z,3.00
2022-11-20T03:51:54.036Z,3.18
2022-11-20T03:54:55.682Z,3.16
2022-11-20T03:57:58.595Z,3.23
2022-11-20T04:01:06.262Z,2.92
2022-11-20T04:04:07.949Z,3.05
2022-11-20T04:07:09.728Z,3.28
2022-11-20T04:10:11.515Z,3.29
2022-11-20T04:13:17.628Z,3.27
2022-11-20T04:16:20.091Z,3.38
2022-11-20T04:19:22.018Z,3.35
2022-11-20T04:22:23.751Z,3.52
2022-11-20T04:25:25.364Z,3.37
2022-11-20T04:28:28.273Z,3.31
2022-11-20T04:31:32.409Z,3.35
2022-11-20T04:34:34.184Z,3.41
2022-11-20T04:37:35.842Z,3.24
2022-11-20T04:40:37.463Z,3.19
2022-11-20T04:43:40.404Z,3.23
2022-11-20T04:46:43.324Z,3.44
2022-11-20T04:49:44.951Z,3.52
2022-11-20T04:52:46.596Z,3.59
2022-11-20T04:55:48.340Z,3.49
2022-11-20T04:58:51.890Z,3.55
2022-11-20T05:01:53.568Z,3.61
2022-11-20T05:04:55.397Z,3.69
2022-11-20T05:07:57.290Z,3.66
2022-11-20T05:11:01.495Z,3.75
2022-11-20T05:14:04.581Z,3.74
2022-11-20T05:17:06.378Z,3.74
2022-11-20T05:20:09.269Z,3.83
2022-11-20T05:23:10.884Z,3.83
2022-11-20T05:26:17.740Z,3.81
2022-11-20T05:29:21.043Z,3.84
2022-11-20T05:32:26.218Z,3.90
2022-11-20T05:35:27.816Z,3.93
2022-11-20T05:38:29.511Z,3.87
2022-11-20T05:41:31.206Z,3.89
2022-11-20T05:44:34.159Z,3.91
2022-11-20T05:47:36.205Z,4.00
2022-11-20T05:50:37.811Z,4.06
2022-11-20T05:53:43.746Z,4.05
2022-11-20T05:56:48.503Z,4.03
2022-11-20T05:59:51.467Z,4.03
2022-11-20T06:02:53.067Z,3.82
2022-11-20T06:05:54.721Z,3.86
2022-11-20T06:08:56.862Z,3.91
2022-11-20T06:11:58.515Z,3.93
2022-11-20T06:15:01.824Z,4.01
2022-11-20T06:18:03.574Z,4.00
2022-11-20T06:21:07.063Z,3.95
2022-11-20T06:24:10.580Z,4.00
2022-11-20T06:27:12.250Z,4.10
2022-11-20T06:30:16.112Z,3.99
2022-11-20T06:33:17.658Z,3.99
2022-11-20T06:36:21.217Z,4.02
2022-11-20T06:39:23.089Z,4.09
2022-11-20T06:42:24.958Z,4.14
2022-11-20T06:45:27.950Z,3.75
2022-11-20T06:48:30.546Z,3.68
2022-11-20T06:51:32.280Z,3.70
2022-11-20T06:54:34.028Z,3.71
2022-11-20T06:57:35.728Z,3.77
2022-11-20T07:00:38.877Z,3.78
2022-11-20T07:03:41.336Z,3.81
2022-11-20T07:06:42.969Z,3.81
2022-11-20T07:09:44.524Z,3.87
2022-11-20T07:12:50.808Z,3.94
2022-11-20T07:15:53.874Z,3.97
2022-11-20T07:18:55.494Z,3.98
2022-11-20T07:21:57.151Z,3.99
2022-11-20T07:24:58.761Z,4.02
2022-11-20T07:28:01.092Z,4.05
2022-11-20T07:31:05.806Z,4.18
2022-11-20T07:34:07.512Z,4.25
2022-11-20T07:37:10.476Z,4.32
2022-11-20T07:40:13.302Z,4.37
2022-11-20T07:43:15.046Z,4.37
2022-11-20T07:46:18.959Z,4.39
2022-11-20T07:49:20.833Z,4.40
2022-11-20T07:52:22.660Z,4.54
2022-11-20T07:55:24.275Z,4.45
2022-11-20T07:58:25.928Z,4.23
2022-11-20T08:01:28.970Z,4.02
2022-11-20T08:04:30.652Z,4.18
2022-11-20T08:07:36.657Z,4.15
2022-11-20T08:10:38.307Z,4.09
2022-11-20T08:13:58.805Z,4.22
2022-11-20T08:17:01.808Z,4.13
2022-11-20T08:20:04.237Z,3.94
2022-11-20T08:23:06.898Z,3.72
2022-11-20T08:26:08.542Z,3.91
2022-11-20T08:29:10.334Z,3.50
2022-11-20T08:32:13.324Z,3.23
2022-11-20T08:35:15.170Z,3.24
2022-11-20T08:38:16.844Z,3.45
2022-11-20T08:41:24.911Z,3.26
2022-11-20T08:44:26.736Z,3.38
2022-11-20T08:47:29.928Z,3.34
2022-11-20T08:50:34.834Z,3.77
2022-11-20T08:53:36.513Z,3.54
2022-11-20T08:56:38.187Z,4.00
2022-11-20T09:03:03.348Z,3.83
2022-11-20T09:06:06.730Z,3.53
2022-11-20T09:09:08.556Z,3.88
2022-11-20T09:12:10.318Z,3.91
2022-11-20T09:15:12.704Z,3.98
2022-11-20T09:18:15.725Z,4.19
2022-11-20T09:21:17.759Z,4.12
2022-11-20T09:24:19.884Z,4.15
2022-11-20T09:27:22.518Z,4.29
2022-11-20T09:30:24.169Z,4.37
2022-11-20T09:33:27.297Z,4.50
2022-11-20T09:36:29.084Z,4.36
2022-11-20T09:39:30.744Z,4.36
2022-11-20T09:42:41.740Z,4.42
2022-11-20T09:45:56.760Z,4.43
2022-11-20T09:49:18.268Z,4.54
2022-11-20T09:52:27.928Z,4.51
2022-11-20T09:55:31.756Z,4.59
2022-11-20T09:58:41.061Z,4.54
2022-11-20T10:01:44.128Z,4.63
2022-11-20T10:04:53.437Z,4.70
2022-11-20T10:08:04.491Z,4.77
2022-11-20T10:11:16.182Z,4.70
2022-11-20T10:14:31.742Z,4.61
2022-11-20T10:17:57.826Z,4.69
2022-11-20T10:21:11.124Z,4.79
2022-11-20T10:24:37.657Z,4.73
2022-11-20T10:28:12.368Z,4.77
2022-11-20T10:31:26.121Z,4.82
2022-11-20T10:34:35.197Z,4.87
2022-11-20T10:37:41.385Z,4.92
2022-11-20T10:40:46.721Z,4.93
2022-11-20T10:43:53.100Z,4.88
2022-11-20T10:46:55.666Z,5.00
2022-11-20T10:50:03.974Z,5.11
2022-11-20T10:53:21.687Z,5.12
2022-11-20T10:56:29.395Z,5.03
2022-11-20T10:59:44.310Z,5.11
2022-11-20T11:02:49.251Z,5.04
2022-11-20T11:05:55.746Z,5.07
2022-11-20T11:09:04.168Z,4.99
2022-11-20T11:12:08.949Z,5.03
2022-11-20T11:15:16.238Z,5.21
2022-11-20T11:18:26.185Z,5.29
2022-11-20T11:21:27.922Z,5.43
2022-11-20T11:24:46.736Z,5.30
2022-11-20T11:27:49.467Z,5.36
2022-11-20T11:30:51.095Z,5.49
2022-11-20T11:33:52.789Z,5.50
2022-11-20T11:36:58.177Z,5.43
2022-11-20T11:40:23.498Z,5.40
2022-11-20T11:43:44.386Z,5.49
2022-11-20T11:46:53.678Z,5.47
2022-11-20T11:50:17.368Z,5.47
2022-11-20T11:53:22.125Z,5.52
2022-11-20T11:56:25.467Z,5.53
2022-11-20T11:59:29.909Z,5.49
2022-11-20T12:02:40.066Z,5.50
2022-11-20T12:05:45.856Z,5.56
2022-11-20T12:08:52.047Z,5.53
2022-11-20T12:11:59.941Z,5.62
2022-11-20T12:15:01.992Z,5.62
2022-11-20T12:18:21.755Z,5.66
2022-11-20T12:21:32.115Z,5.59
2022-11-20T12:24:53.151Z,5.59
2022-11-20T12:28:22.317Z,5.67
2022-11-20T12:31:53.734Z,5.77
2022-11-20T12:35:11.112Z,6.01
2022-11-20T12:38:46.110Z,6.01
2022-11-20T12:42:41.818Z,6.08
2022-11-20T12:45:55.102Z,6.08
2022-11-20T12:49:13.544Z,6.13
2022-11-20T12:52:27.254Z,6.04
2022-11-20T12:55:43.436Z,6.07
2022-11-20T12:58:54.443Z,6.28
2022-11-20T13:02:04.098Z,6.25
2022-11-20T13:05:32.247Z,6.34
2022-11-20T13:08:36.515Z,6.39
2022-11-20T13:11:44.404Z,6.37
2022-11-20T13:14:51.537Z,6.36
2022-11-20T13:17:57.274Z,6.34
2022-11-20T13:21:00.361Z,6.35
2022-11-20T13:24:05.526Z,6.36
2022-11-20T13:27:21.129Z,6.37
2022-11-20T13:30:24.941Z,6.35
2022-11-20T13:33:32.144Z,6.33
2022-11-20T13:36:37.510Z,6.44
2022-11-20T13:39:39.164Z,6.37
2022-11-20T13:42:45.599Z,6.36
2022-11-20T13:45:56.938Z,6.60
2022-11-20T13:48:58.819Z,6.83
2022-11-20T13:52:28.172Z,6.91
2022-11-20T13:55:38.789Z,7.03
2022-11-20T13:58:54.883Z,7.28
2022-11-20T14:01:56.813Z,7.33
2022-11-20T14:05:01.583Z,7.41
2022-11-20T14:08:07.131Z,7.38
2022-11-20T14:11:16.682Z,7.57
2022-11-20T14:14:21.960Z,7.65
2022-11-20T14:17:30.601Z,7.57
2022-11-20T14:20:33.495Z,7.41
2022-11-20T14:23:36.651Z,7.34
2022-11-20T14:26:42.091Z,7.34
2022-11-20T14:29:45.762Z,7.26
2022-11-20T14:32:48.651Z,7.33
2022-11-20T14:35:52.619Z,7.20
2022-11-20T14:38:55.784Z,7.17
2022-11-20T14:41:57.532Z,7.09
2022-11-20T14:45:00.803Z,6.97
2022-11-20T14:48:02.648Z,6.99
2022-11-20T14:51:04.306Z,6.99
2022-11-20T14:54:11.927Z,6.97
2022-11-20T14:57:25.632Z,7.01
2022-11-20T15:00:28.103Z,7.12
2022-11-20T15:03:34.347Z,7.07
2022-11-20T15:06:37.036Z,7.17
2022-11-20T15:09:40.038Z,7.12
2022-11-20T15:12:48.697Z,7.04
2022-11-20T15:15:51.959Z,7.01
2022-11-20T15:18:53.701Z,6.96
2022-11-20T15:21:55.584Z,6.99
2022-11-20T15:24:58.618Z,7.04
2022-11-20T15:28:00.330Z,7.08
2022-11-20T15:31:03.987Z,7.07
2022-11-20T15:34:08.356Z,7.02
2022-11-20T15:37:10.161Z,7.01
2022-11-20T15:40:13.761Z,7.07
2022-11-20T15:43:15.562Z,7.02
2022-11-20T15:46:21.103Z,7.02
2022-11-20T15:49:24.599Z,6.88
2022-11-20T15:52:28.517Z,6.82
2022-11-20T15:55:33.655Z,6.73
2022-11-20T15:58:35.379Z,6.80
2022-11-20T16:01:37.271Z,6.71
2022-11-20T16:04:39.342Z,6.66
2022-11-20T16:07:42.744Z,6.65
2022-11-20T16:10:45.930Z,6.62
2022-11-20T16:14:06.077Z,6.65
2022-11-20T16:17:07.733Z,6.65
2022-11-20T16:20:11.984Z,6.69
2022-11-20T16:23:14.034Z,6.79
2022-11-20T16:26:18.244Z,6.74
2022-11-20T16:29:20.164Z,6.74
2022-11-20T16:32:21.833Z,6.81
2022-11-20T16:35:23.564Z,6.81
2022-11-20T16:38:25.232Z,6.75
2022-11-20T16:41:30.548Z,6.82
2022-11-20T16:44:32.177Z,6.81
2022-11-20T16:47:34.487Z,6.69
2022-11-20T16:50:36.129Z,6.78
2022-11-20T16:53:38.654Z,6.78
2022-11-20T16:56:41.787Z,6.82
2022-11-20T16:59:43.469Z,6.83
2022-11-20T17:02:45.229Z,6.79
2022-11-20T17:05:47.061Z,6.71
2022-11-20T17:08:49.032Z,6.69
2022-11-20T17:11:52.481Z,6.70
2022-11-20T17:14:54.141Z,6.64
2022-11-20T17:17:55.806Z,6.62
2022-11-20T17:20:57.957Z,6.62
2022-11-20T17:24:01.917Z,6.61
2022-11-20T17:27:04.935Z,6.57
2022-11-20T17:30:07.560Z,6.52
2022-11-20T17:33:09.228Z,6.46
2022-11-20T17:36:15.843Z,6.51
2022-11-20T17:39:17.937Z,6.50
2022-11-20T17:42:26.833Z,6.49
2022-11-20T17:45:28.554Z,6.55
2022-11-20T17:48:30.705Z,6.64
2022-11-20T17:51:34.910Z,6.61
2022-11-20T17:54:36.591Z,6.56
2022-11-20T17:57:56.681Z,6.51
2022-11-20T18:01:04.954Z,6.41
2022-11-20T18:04:06.758Z,6.41
2022-11-20T18:07:08.616Z,6.45
2022-11-20T18:10:10.468Z,6.54
2022-11-20T18:13:13.498Z,6.50
2022-11-20T18:16:15.172Z,6.50
2022-11-20T18:19:18.918Z,6.45
2022-11-20T18:22:20.638Z,6.44
2022-11-20T18:25:22.293Z,6.44
2022-11-20T18:28:25.403Z,6.42
2022-11-20T18:31:27.343Z,6.44
2022-11-20T18:34:29.598Z,6.42
2022-11-20T18:37:31.874Z,6.39
2022-11-20T18:40:34.887Z,6.37
2022-11-20T18:43:56.625Z,6.36
2022-11-20T18:46:58.334Z,6.38
2022-11-20T18:50:01.388Z,6.37
2022-11-20T18:53:03.017Z,6.33
2022-11-20T18:56:05.445Z,6.32
2022-11-20T18:59:09.814Z,6.38
2022-11-20T19:02:13.910Z,6.41
2022-11-20T19:05:15.726Z,6.50
2022-11-20T19:08:17.434Z,6.46
2022-11-20T19:11:19.536Z,6.39
2022-11-20T19:14:22.811Z,6.39
2022-11-20T19:17:26.264Z,6.33
2022-11-20T19:20:27.863Z,6.33
2022-11-20T19:23:29.663Z,6.33
2022-11-20T19:26:31.320Z,6.32
2022-11-20T19:29:34.361Z,6.27
2022-11-20T19:32:36.162Z,6.30
2022-11-20T19:35:37.804Z,6.20
2022-11-20T19:38:43.681Z,6.22
2022-11-20T19:41:49.249Z,6.21
2022-11-20T19:44:52.911Z,6.21
2022-11-20T19:48:09.870Z,6.24
2022-11-20T19:51:13.466Z,6.21
2022-11-20T19:54:16.691Z,6.22
2022-11-20T19:57:18.729Z,6.17
2022-11-20T20:00:28.075Z,6.15
2022-11-20T20:03:34.000Z,6.19
2022-11-20T20:06:38.713Z,6.15
2022-11-20T20:09:40.389Z,6.08
2022-11-20T20:12:41.993Z,6.05
2022-11-20T20:15:45.124Z,6.02
2022-11-20T20:18:47.106Z,6.06
2022-11-20T20:21:49.986Z,6.06
2022-11-20T20:24:52.115Z,6.05
2022-11-20T20:27:54.014Z,6.06
2022-11-20T20:30:57.351Z,6.08
2022-11-20T20:33:59.394Z,6.09
2022-11-20T20:37:01.123Z,6.10
2022-11-20T20:40:02.897Z,6.13
2022-11-20T20:43:04.821Z,6.11
2022-11-20T20:46:07.886Z,6.05
2022-11-20T20:49:09.887Z,6.10
2022-11-20T20:52:11.720Z,6.10
2022-11-20T20:55:13.528Z,6.11
2022-11-20T20:58:15.170Z,6.08
2022-11-20T21:01:19.298Z,6.07
2022-11-20T21:04:21.086Z,6.13
2022-11-20T21:07:22.848Z,6.10
2022-11-20T21:10:24.541Z,5.97
2022-11-20T21:13:26.244Z,5.99
2022-11-20T21:16:40.774Z,5.91
2022-11-20T21:19:42.533Z,5.94
2022-11-20T21:22:44.130Z,5.97
2022-11-20T21:25:45.843Z,5.99
2022-11-20T21:28:47.969Z,5.99
2022-11-20T21:31:51.335Z,5.98
2022-11-20T21:34:52.978Z,6.01
2022-11-20T21:37:54.676Z,5.92
2022-11-20T21:40:57.277Z,5.88
2022-11-20T21:47:23.000Z,5.84
2022-11-20T21:50:24.694Z,5.80
2022-11-20T21:53:26.337Z,5.88
2022-11-20T21:56:28.133Z,5.90
2022-11-20T21:59:29.766Z,5.90
2022-11-20T22:02:32.795Z,5.86
2022-11-20T22:05:34.565Z,5.84
2022-11-20T22:08:37.261Z,5.81
2022-11-20T22:11:38.895Z,5.82
2022-11-20T22:14:40.537Z,5.84
2022-11-20T22:18:02.341Z,5.82
2022-11-20T22:21:05.835Z,5.86
2022-11-20T22:24:08.220Z,5.89
2022-11-20T22:27:10.360Z,5.81
2022-11-20T22:30:13.144Z,5.84
2022-11-20T22:33:16.082Z,5.80
2022-11-20T22:36:19.915Z,5.80
2022-11-20T22:39:22.962Z,5.79
2022-11-20T22:42:24.637Z,5.84
2022-11-20T22:45:26.230Z,5.81
2022-11-20T22:48:29.239Z,5.88
2022-11-20T22:51:32.859Z,5.94
2022-11-20T22:54:34.589Z,5.95
2022-11-20T22:57:36.201Z,5.94
2022-11-20T23:00:37.873Z,6.01
2022-11-20T23:03:42.335Z,6.02
2022-11-20T23:06:43.987Z,6.03
2022-11-20T23:09:45.702Z,6.00
2022-11-20T23:12:47.471Z,5.97
2022-11-20T23:15:49.084Z,5.99
2022-11-20T23:18:55.674Z,6.00
2022-11-20T23:21:57.256Z,6.00
2022-11-20T23:24:58.861Z,6.00
2022-11-20T23:28:00.532Z,6.05
2022-11-20T23:31:02.754Z,6.07
2022-11-20T23:34:05.828Z,6.03
2022-11-20T23:37:07.933Z,6.06
2022-11-20T23:40:10.431Z,6.10
2022-11-20T23:43:14.955Z,6.14
2022-11-20T23:46:17.161Z,6.13
2022-11-20T23:49:20.147Z,6.14
2022-11-20T23:52:22.169Z,6.16
2022-11-20T23:55:23.939Z,6.15
2022-11-20T23:58:30.367Z,6.13
